Ridgecrest, CA (93555)

9:45 PM PDT on September 02, 2014 (GMT -0700)
Ridgecrest Heights, CA 93555 | Change Station
CLOSE
Current Station
Personal Weather Station
Location: Ridgecrest, CA
Elevation: 2392 ft
Nearby Weather Stations

Elev 2392 ft 35.60 °N, 117.70 °W | Updated 14 minutes ago

Clear
Clear
87.1 °F
Feels Like 84 °F
N
6.0
Wind Variable Wind from SW
Gusts 16.0 mph

Today
High -- | Low -- °F
--% Chance of Precip.
Yesterday
High -- | Low -- °F
Precip. -- in
6:23 AM 7:16 PM
First Quarter, 58% visible
Pressure 29.66 in
Visibility 10.0 miles
Clouds Clear
Heat Index 84 °F
Dew Point 41 °F
Humidity 20%
Rainfall 0.00 in
Snow Depth Not available.
UV 0 out of 12
Pollen 9.20 out of 12
Air Quality Not available.
Flu Activity Not available.
METAR KNID 030356Z 18008KT 10SM CLR 32/04 A2973 RMK AO2 SLP043 T03170044

More Conditions Fewer Conditions

Pressure 29.66 in
Visibility 10.0 miles
Clouds Clear
Heat Index 84 °F
Dew Point 41 °F
Humidity 20%
Rainfall 0.00 in
Snow Depth Not available.
UV 0 out of 12
Pollen 9.20 out of 12
Air Quality Not available.
Flu Activity Not available.
METAR KNID 030356Z 18008KT 10SM CLR 32/04 A2973 RMK AO2 SLP043 T03170044

More Conditions Fewer Conditions

10-Day Weather Forecast

Almanac

Astronomy

Sep. 02, 2014 Rise Set
Actual Time 6:23 AM PDT 7:16 PM PDT
Civil Twilight 5:57 AM PDT 7:42 PM PDT
Nautical Twilight 5:26 AM PDT 8:13 PM PDT
Astronomical Twilight 4:55 AM PDT 8:44 PM PDT
Moon 1:58 PM PDT (9/2) No Moon Set
Length of Visible Light 13h 44m
Length of Day
12h 52m
Tomorrow will be 2m 9s shorter.
First Quarter, 58% of the Moon is Illuminated
Sep 3
First Quarter
Sep 8
Full
Sep 15
Last Quarter
Sep 24
New
Oct 1
First Quarter

Yesterday's Extremes

State Highs State Lows

Community

WunderPhotos

Upload Photos

1,749,875 photos uploaded!

Nearby

Snow Depth

Station Depth Elevation
Leavitt Lake 0 in 9400 ft
Leavitt Meadows 0 in 7200 ft
Summit Meadow 0 in 9122 ft
Monitor Pass 0 in 8350 ft
Blue Lakes 0 in 8000 ft

Earthquake Activity

City Distance Mag. Time & Date
San Jacinto, California 131 miles 2.9 8:30 PM PDT
2014-09-02
San Jacinto, California 131 miles 3.7 7:38 PM PDT
2014-09-02
Goldfield, Nevada 131 miles 2.7 7:38 PM PDT
2014-08-30
Minimum magnitude displayed is 2.5.

Coastal Water Temperatures

Place Temperature
No Stations Reporting

Nearby Weather Stations